Terminal Aerodrome Forecast
Issued by NWS Albany, NY

Home | Current Version | Previous Version | Text Only | Print | Product List | Glossary On
Versions: 1 2 3 4 5 6 7 8 9 10 11 12
000
FTUS41 KALY 280500
TAFGFL
TAF
KGFL 280537Z 2806/2906 21005KT P6SM VCSH OVC050
      TEMPO 2806/2808 5SM -SHRA BR OVC035
     FM280800 21005KT 6SM -SHRA BR OVC035
      TEMPO 2808/2811 4SM -SHRA BR OVC025
     FM281100 21005KT 5SM -SHRA BR OVC025
     FM281400 23008KT P6SM VCSH OVC030
     FM281700 28008G14KT P6SM OVC040
     FM282300 28005KT P6SM SCT045 BKN150=

USA.gov is the U.S. government's official web portal to all federal, state and local government web resources and services.